Time;durP1;ratioP1;P1;durP2;ratioP2;P2;SDS_P1;SDS_P2;PMS_P1;PMS_P2;Temp;Humidity;BMP_temperature;BMP_pressure;BME280_temperature;BME280_humidity;BME280_pressure;Samples;Min_cycle;Max_cycle;Signal;HPM_P1;HPM_P2
2023/01/19 00:00:55;;;;;;;79.40;17.60;;;;;;;;;;5072532;28;20213;-70
2023/01/19 00:03:22;;;;;;;81.65;19.60;;;;;;;;;;5072536;28;20227;-70
2023/01/19 00:05:50;;;;;;;78.40;17.65;;;;;;;;;;5072503;28;20205;-71
2023/01/19 00:08:17;;;;;;;83.20;18.27;;;;;;;;;;5072232;28;20300;-70
2023/01/19 00:10:45;;;;;;;95.75;25.85;;;;;;;;;;5072135;28;20258;-70
2023/01/19 00:13:13;;;;;;;89.68;24.35;;;;;;;;;;5072488;28;20225;-70
2023/01/19 00:15:41;;;;;;;82.85;21.40;;;;;;;;;;5072148;28;20205;-71
2023/01/19 00:18:08;;;;;;;96.30;23.65;;;;;;;;;;5072084;28;20712;-70
2023/01/19 00:20:36;;;;;;;79.70;19.63;;;;;;;;;;5071632;28;20212;-71
2023/01/19 00:23:04;;;;;;;81.57;18.70;;;;;;;;;;5072045;28;20224;-70
2023/01/19 00:25:31;;;;;;;85.05;21.10;;;;;;;;;;5072195;28;20251;-70
2023/01/19 00:27:58;;;;;;;87.35;21.35;;;;;;;;;;5072148;28;20212;-70
2023/01/19 00:30:25;;;;;;;91.07;21.67;;;;;;;;;;5071445;28;20205;-70
2023/01/19 00:32:53;;;;;;;80.72;20.63;;;;;;;;;;5071893;28;20230;-71
2023/01/19 00:35:21;;;;;;;86.18;21.50;;;;;;;;;;5071955;28;20219;-71
2023/01/19 00:37:48;;;;;;;82.70;21.10;;;;;;;;;;5072193;28;20209;-70
2023/01/19 00:40:15;;;;;;;84.68;19.45;;;;;;;;;;5071058;28;20724;-71
2023/01/19 00:42:43;;;;;;;86.03;21.50;;;;;;;;;;5071793;28;20721;-71
2023/01/19 00:45:11;;;;;;;88.45;22.15;;;;;;;;;;5071965;28;20578;-70
2023/01/19 00:47:39;;;;;;;89.68;22.00;;;;;;;;;;5071779;28;20212;-70
2023/01/19 00:50:10;;;;;;;86.15;22.75;;;;;;;;;;5070953;28;20215;-70
2023/01/19 00:52:37;;;;;;;84.15;20.15;;;;;;;;;;5071675;28;20311;-70
2023/01/19 00:55:05;;;;;;;87.15;23.05;;;;;;;;;;5071924;28;20204;-71
2023/01/19 00:57:32;;;;;;;88.32;21.92;;;;;;;;;;5071858;28;20205;-70
2023/01/19 00:59:59;;;;;;;89.97;20.05;;;;;;;;;;5070956;28;20225;-71
2023/01/19 01:02:26;;;;;;;87.82;22.02;;;;;;;;;;5071440;28;20239;-70
2023/01/19 01:04:55;;;;;;;86.50;21.83;;;;;;;;;;5071967;28;20656;-70
2023/01/19 01:07:24;;;;;;;81.60;19.63;;;;;;;;;;5071842;28;20213;-70
2023/01/19 01:09:51;;;;;;;86.25;20.33;;;;;;;;;;5070965;28;20204;-71
2023/01/19 01:12:18;;;;;;;82.43;18.98;;;;;;;;;;5071690;28;20227;-70
2023/01/19 01:14:45;;;;;;;82.25;18.70;;;;;;;;;;5071600;28;20215;-70
2023/01/19 01:17:13;;;;;;;76.90;17.15;;;;;;;;;;5071462;28;20213;-70
2023/01/19 01:19:40;;;;;;;84.53;18.75;;;;;;;;;;5070895;28;20233;-69
2023/01/19 01:22:07;;;;;;;76.82;17.58;;;;;;;;;;5071613;28;20220;-70
2023/01/19 01:24:37;;;;;;;89.60;22.83;;;;;;;;;;5071539;28;20240;-70
2023/01/19 01:27:04;;;;;;;85.85;21.02;;;;;;;;;;5072296;28;20204;-71
2023/01/19 01:29:34;;;;;;;83.78;19.52;;;;;;;;;;5074735;28;20197;-70
2023/01/19 01:32:01;;;;;;;83.40;19.05;;;;;;;;;;5075305;28;20209;-70
2023/01/19 01:34:28;;;;;;;91.22;24.38;;;;;;;;;;5075683;28;20291;-70
2023/01/19 01:36:55;;;;;;;93.53;23.48;;;;;;;;;;5075602;28;20216;-71
2023/01/19 01:39:22;;;;;;;84.03;18.83;;;;;;;;;;5074564;28;20225;-71
2023/01/19 01:41:51;;;;;;;82.38;18.45;;;;;;;;;;5075479;28;20578;-70
2023/01/19 01:44:36;;;;;;;78.90;20.15;;;;;;;;;;5075648;28;20209;-71
2023/01/19 01:47:03;;;;;;;83.95;15.57;;;;;;;;;;5075110;28;20207;-71
2023/01/19 01:49:31;;;;;;;75.68;15.98;;;;;;;;;;5074637;28;20818;-71
2023/01/19 01:51:58;;;;;;;78.35;15.90;;;;;;;;;;5075157;28;20215;-71
2023/01/19 01:54:27;;;;;;;80.70;18.05;;;;;;;;;;5075246;28;20226;-70
2023/01/19 01:56:57;;;;;;;78.65;19.58;;;;;;;;;;5074966;28;20209;-71
2023/01/19 01:59:28;;;;;;;72.80;16.00;;;;;;;;;;5074132;28;20232;-70
2023/01/19 02:04:45;;;;;;;79.43;16.15;;;;;;;;;;5074942;28;20270;-71
2023/01/19 02:15:28;;;;;;;81.57;18.95;;;;;;;;;;5074598;28;20258;-70
2023/01/19 02:17:57;;;;;;;81.93;19.55;;;;;;;;;;5074720;28;20201;-69
2023/01/19 02:20:25;;;;;;;80.03;17.02;;;;;;;;;;5073940;28;20590;-71
2023/01/19 02:22:53;;;;;;;83.10;19.52;;;;;;;;;;5074533;28;20220;-70
2023/01/19 02:25:21;;;;;;;83.50;18.50;;;;;;;;;;5074397;28;20220;-70
2023/01/19 02:27:49;;;;;;;81.68;17.75;;;;;;;;;;5074420;28;20233;-70
2023/01/19 02:30:17;;;;;;;85.95;18.35;;;;;;;;;;5073760;28;20205;-70
2023/01/19 02:32:44;;;;;;;78.72;16.45;;;;;;;;;;5074204;28;20229;-70
2023/01/19 02:35:11;;;;;;;81.05;17.40;;;;;;;;;;5074394;28;20205;-71
2023/01/19 02:37:40;;;;;;;77.78;16.42;;;;;;;;;;5074199;28;20212;-70
2023/01/19 02:40:09;;;;;;;76.00;15.85;;;;;;;;;;5073473;28;20225;-70
2023/01/19 02:42:39;;;;;;;75.45;17.05;;;;;;;;;;5074020;28;20228;-71
2023/01/19 02:45:08;;;;;;;74.25;16.33;;;;;;;;;;5074377;28;20227;-70
2023/01/19 02:47:39;;;;;;;77.80;16.05;;;;;;;;;;5070354;28;20254;-71
2023/01/19 02:50:26;;;;;;;83.43;16.70;;;;;;;;;;5073710;28;20221;-70
2023/01/19 02:52:55;;;;;;;76.28;15.20;;;;;;;;;;5073836;28;20598;-70
2023/01/19 02:55:26;;;;;;;79.25;16.00;;;;;;;;;;5074176;28;20209;-71
2023/01/19 02:57:58;;;;;;;74.47;16.02;;;;;;;;;;5074097;28;20212;-71
2023/01/19 03:00:32;;;;;;;76.20;15.82;;;;;;;;;;5072967;28;20221;-70
2023/01/19 03:03:07;;;;;;;75.95;15.20;;;;;;;;;;5074022;28;20243;-70
2023/01/19 03:05:43;;;;;;;75.85;15.95;;;;;;;;;;5073878;28;20295;-70
2023/01/19 03:08:15;;;;;;;77.47;15.63;;;;;;;;;;5073604;28;20201;-71
2023/01/19 03:10:45;;;;;;;83.97;16.48;;;;;;;;;;5073257;28;20216;-71
2023/01/19 03:13:17;;;;;;;76.10;16.77;;;;;;;;;;5073776;28;20233;-70
2023/01/19 03:15:46;;;;;;;76.82;15.55;;;;;;;;;;5073954;28;20216;-71
2023/01/19 03:18:15;;;;;;;77.20;14.98;;;;;;;;;;5073521;28;20211;-70
2023/01/19 03:20:42;;;;;;;75.78;15.68;;;;;;;;;;5073164;28;20229;-70
2023/01/19 03:23:11;;;;;;;78.82;15.90;;;;;;;;;;5073354;28;20595;-71
2023/01/19 03:25:40;;;;;;;76.57;16.17;;;;;;;;;;5073550;28;20216;-71
2023/01/19 03:28:07;;;;;;;74.40;16.42;;;;;;;;;;5073405;28;20209;-71
2023/01/19 03:30:37;;;;;;;76.43;17.35;;;;;;;;;;5072616;28;20201;-71
2023/01/19 03:33:07;;;;;;;74.30;15.23;;;;;;;;;;5073220;28;20602;-71
2023/01/19 03:35:36;;;;;;;78.18;15.32;;;;;;;;;;5073104;28;20669;-70
2023/01/19 03:38:07;;;;;;;72.88;15.13;;;;;;;;;;5072892;28;20697;-73
2023/01/19 03:40:35;;;;;;;74.50;15.15;;;;;;;;;;5072433;28;20232;-70
2023/01/19 03:43:03;;;;;;;75.75;14.65;;;;;;;;;;5073100;28;20232;-70
2023/01/19 03:45:31;;;;;;;78.38;15.80;;;;;;;;;;5073057;28;20212;-71
2023/01/19 03:48:00;;;;;;;75.30;15.15;;;;;;;;;;5072738;28;20205;-71
2023/01/19 03:50:29;;;;;;;85.15;15.85;;;;;;;;;;5071422;28;20207;-71
2023/01/19 03:53:05;;;;;;;78.97;15.70;;;;;;;;;;5072988;28;20231;-70
2023/01/19 03:55:33;;;;;;;74.28;15.68;;;;;;;;;;5072925;28;20215;-70
2023/01/19 03:58:00;;;;;;;74.45;15.48;;;;;;;;;;5072761;28;20201;-70
2023/01/19 04:00:27;;;;;;;76.47;17.10;;;;;;;;;;5071912;28;20599;-71
2023/01/19 04:02:55;;;;;;;83.82;16.38;;;;;;;;;;5072423;28;20252;-70
2023/01/19 04:05:23;;;;;;;74.68;15.02;;;;;;;;;;5072447;28;20213;-70
2023/01/19 04:07:51;;;;;;;77.30;15.77;;;;;;;;;;5072802;28;20201;-70
2023/01/19 04:10:18;;;;;;;77.85;15.05;;;;;;;;;;5071833;28;20196;-70
2023/01/19 04:12:45;;;;;;;73.10;14.70;;;;;;;;;;5072368;28;20737;-71
2023/01/19 04:15:12;;;;;;;76.50;16.95;;;;;;;;;;5072403;28;20211;-71
2023/01/19 04:17:40;;;;;;;75.78;15.50;;;;;;;;;;5072194;28;20201;-70
2023/01/19 04:20:08;;;;;;;75.60;15.88;;;;;;;;;;5071788;28;20568;-71
2023/01/19 04:22:37;;;;;;;77.38;16.25;;;;;;;;;;5072273;28;20225;-71
2023/01/19 04:25:05;;;;;;;76.80;14.85;;;;;;;;;;5072280;28;20213;-71
2023/01/19 04:27:32;;;;;;;76.70;16.00;;;;;;;;;;5072154;28;20220;-71
2023/01/19 04:29:59;;;;;;;74.68;15.20;;;;;;;;;;5071302;28;20201;-70
2023/01/19 04:32:27;;;;;;;72.38;14.85;;;;;;;;;;5072203;28;20232;-71
2023/01/19 04:34:54;;;;;;;77.20;16.77;;;;;;;;;;5072378;28;20201;-71
2023/01/19 04:37:21;;;;;;;75.75;16.58;;;;;;;;;;5071939;28;20205;-70
2023/01/19 04:39:49;;;;;;;75.15;15.30;;;;;;;;;;5071256;28;20589;-70
2023/01/19 04:42:16;;;;;;;74.60;15.18;;;;;;;;;;5071838;28;20232;-71
2023/01/19 04:44:43;;;;;;;72.28;13.73;;;;;;;;;;5071778;28;20209;-70
2023/01/19 04:47:11;;;;;;;75.15;14.93;;;;;;;;;;5072154;28;20578;-71
2023/01/19 04:49:38;;;;;;;76.85;14.50;;;;;;;;;;5071229;28;20201;-70
2023/01/19 04:52:05;;;;;;;77.13;16.60;;;;;;;;;;5071980;28;20719;-71
2023/01/19 04:54:32;;;;;;;75.78;15.13;;;;;;;;;;5071707;28;20685;-70
2023/01/19 04:57:01;;;;;;;73.25;16.15;;;;;;;;;;5071924;28;20207;-69
2023/01/19 04:59:28;;;;;;;80.72;15.02;;;;;;;;;;5071025;28;20215;-70
2023/01/19 05:01:55;;;;;;;76.38;15.35;;;;;;;;;;5071686;28;20205;-71
2023/01/19 05:04:24;;;;;;;82.70;17.00;;;;;;;;;;5071645;28;20209;-70
2023/01/19 05:06:53;;;;;;;78.22;16.35;;;;;;;;;;5071788;28;20201;-71
2023/01/19 05:09:20;;;;;;;75.35;16.67;;;;;;;;;;5071233;28;20232;-70
2023/01/19 05:11:47;;;;;;;75.72;14.50;;;;;;;;;;5071477;28;20205;-70
2023/01/19 05:14:15;;;;;;;74.18;15.60;;;;;;;;;;5071797;28;20571;-70
2023/01/19 05:16:42;;;;;;;77.65;15.43;;;;;;;;;;5071872;28;20215;-70
2023/01/19 05:19:09;;;;;;;74.22;14.93;;;;;;;;;;5070851;28;20677;-71
2023/01/19 05:21:37;;;;;;;74.47;15.00;;;;;;;;;;5071713;28;20230;-70
2023/01/19 05:24:04;;;;;;;77.53;15.20;;;;;;;;;;5071422;28;20607;-71
2023/01/19 05:26:31;;;;;;;75.25;15.40;;;;;;;;;;5071427;28;20213;-70
2023/01/19 05:28:58;;;;;;;82.95;16.88;;;;;;;;;;5070735;28;20201;-71
2023/01/19 05:31:26;;;;;;;76.70;14.70;;;;;;;;;;5071583;28;20204;-70
2023/01/19 05:33:54;;;;;;;77.07;16.27;;;;;;;;;;5071482;28;20225;-71
2023/01/19 05:36:21;;;;;;;83.60;15.10;;;;;;;;;;5071354;28;20302;-70
2023/01/19 05:38:48;;;;;;;78.82;16.73;;;;;;;;;;5070637;28;20205;-70
2023/01/19 05:41:16;;;;;;;78.38;15.55;;;;;;;;;;5071255;28;20232;-70
2023/01/19 05:43:43;;;;;;;75.88;15.38;;;;;;;;;;5071465;28;20225;-70
2023/01/19 05:46:10;;;;;;;95.60;26.20;;;;;;;;;;5071437;28;20549;-70
2023/01/19 05:48:39;;;;;;;107.80;33.83;;;;;;;;;;5070505;28;20201;-70
2023/01/19 05:51:06;;;;;;;94.35;22.80;;;;;;;;;;5070933;28;20209;-70
2023/01/19 05:53:33;;;;;;;82.97;19.50;;;;;;;;;;5068216;28;20213;-70
2023/01/19 05:56:01;;;;;;;84.32;19.38;;;;;;;;;;5071091;28;20209;-71
2023/01/19 05:58:28;;;;;;;78.40;18.05;;;;;;;;;;5069924;28;20202;-70
2023/01/19 06:00:55;;;;;;;77.57;16.52;;;;;;;;;;5070751;28;20302;-69
2023/01/19 06:03:22;;;;;;;76.60;16.05;;;;;;;;;;5071138;28;20225;-70
2023/01/19 06:05:51;;;;;;;76.68;17.85;;;;;;;;;;5071102;28;20208;-70
2023/01/19 06:08:18;;;;;;;78.15;16.38;;;;;;;;;;5071276;28;20205;-71
2023/01/19 06:10:45;;;;;;;73.25;15.38;;;;;;;;;;5070455;28;20304;-70
2023/01/19 06:13:12;;;;;;;80.97;17.30;;;;;;;;;;5072206;28;20237;-71
2023/01/19 06:15:39;;;;;;;80.20;15.68;;;;;;;;;;5074909;28;20205;-71
2023/01/19 06:18:06;;;;;;;81.03;16.40;;;;;;;;;;5074723;28;20587;-70
2023/01/19 06:20:33;;;;;;;79.63;17.35;;;;;;;;;;5073767;28;20235;-70
2023/01/19 06:23:02;;;;;;;82.68;18.02;;;;;;;;;;5074643;28;20231;-71
2023/01/19 06:25:29;;;;;;;80.82;16.90;;;;;;;;;;5074376;28;20216;-71
2023/01/19 06:27:56;;;;;;;73.85;15.18;;;;;;;;;;5074737;28;20212;-70
2023/01/19 06:30:23;;;;;;;78.75;16.85;;;;;;;;;;5073803;28;20201;-70
2023/01/19 06:32:51;;;;;;;75.30;15.88;;;;;;;;;;5074583;28;20249;-70
2023/01/19 06:35:18;;;;;;;78.80;16.48;;;;;;;;;;5074308;28;20209;-70
2023/01/19 06:37:46;;;;;;;77.30;17.42;;;;;;;;;;5074495;28;20232;-70
2023/01/19 06:40:14;;;;;;;74.63;15.27;;;;;;;;;;5073459;28;20232;-70
2023/01/19 06:42:41;;;;;;;75.20;15.73;;;;;;;;;;5074109;28;20232;-71
2023/01/19 06:45:09;;;;;;;75.50;15.45;;;;;;;;;;5074262;28;20209;-71
2023/01/19 06:47:36;;;;;;;78.32;16.48;;;;;;;;;;5074026;28;20209;-71
2023/01/19 06:50:04;;;;;;;78.20;15.63;;;;;;;;;;5073604;28;20215;-70
2023/01/19 06:52:31;;;;;;;76.25;16.73;;;;;;;;;;5074074;28;20229;-70
2023/01/19 06:54:58;;;;;;;76.65;17.10;;;;;;;;;;5074107;28;20205;-71
2023/01/19 06:57:26;;;;;;;79.13;16.83;;;;;;;;;;5074139;28;20215;-70
2023/01/19 06:59:54;;;;;;;75.28;15.38;;;;;;;;;;5073174;28;20213;-70
2023/01/19 07:02:22;;;;;;;74.10;14.93;;;;;;;;;;5073675;28;20233;-71
2023/01/19 07:04:49;;;;;;;80.22;16.52;;;;;;;;;;5073956;28;20201;-70
2023/01/19 07:07:17;;;;;;;76.75;15.45;;;;;;;;;;5073755;28;20292;-71
2023/01/19 07:09:44;;;;;;;79.78;15.95;;;;;;;;;;5072856;28;20220;-71
2023/01/19 07:12:11;;;;;;;76.20;17.55;;;;;;;;;;5073801;28;20217;-71
2023/01/19 07:14:39;;;;;;;76.28;17.55;;;;;;;;;;5073535;28;20212;-71
2023/01/19 07:17:07;;;;;;;83.70;18.45;;;;;;;;;;5073850;28;20292;-70
2023/01/19 07:19:34;;;;;;;91.72;29.88;;;;;;;;;;5072786;28;20248;-70
2023/01/19 07:22:02;;;;;;;84.90;22.58;;;;;;;;;;5073465;28;20267;-69
2023/01/19 07:24:30;;;;;;;80.43;20.75;;;;;;;;;;5072396;28;20213;-70
2023/01/19 07:26:57;;;;;;;83.60;20.40;;;;;;;;;;5070956;28;20201;-70
2023/01/19 07:29:24;;;;;;;82.45;21.13;;;;;;;;;;5052519;28;20220;-70
2023/01/19 07:31:53;;;;;;;82.18;20.00;;;;;;;;;;5053745;28;20509;-70
2023/01/19 07:34:20;;;;;;;79.22;19.15;;;;;;;;;;5053015;28;20740;-70
2023/01/19 07:36:48;;;;;;;88.65;21.33;;;;;;;;;;5053411;28;20212;-70
2023/01/19 07:39:15;;;;;;;82.78;20.10;;;;;;;;;;5052446;28;20210;-70
2023/01/19 07:41:42;;;;;;;79.18;19.17;;;;;;;;;;5053013;28;20230;-70
2023/01/19 07:44:10;;;;;;;83.70;20.50;;;;;;;;;;5053020;28;20736;-71
2023/01/19 07:46:37;;;;;;;77.75;17.45;;;;;;;;;;5053007;28;20674;-70
2023/01/19 07:49:05;;;;;;;76.03;17.20;;;;;;;;;;5052296;28;20215;-71
2023/01/19 07:51:32;;;;;;;82.40;19.98;;;;;;;;;;5053287;28;20750;-71
2023/01/19 07:54:00;;;;;;;78.30;18.70;;;;;;;;;;5052852;28;20222;-70
2023/01/19 07:56:29;;;;;;;81.28;18.08;;;;;;;;;;5052816;28;20205;-70
2023/01/19 07:58:56;;;;;;;81.65;19.20;;;;;;;;;;5052193;28;20212;-70
2023/01/19 08:01:23;;;;;;;78.47;17.60;;;;;;;;;;5052827;28;20325;-71
2023/01/19 08:03:51;;;;;;;77.10;17.75;;;;;;;;;;5052676;28;20226;-71
2023/01/19 08:06:20;;;;;;;76.97;17.58;;;;;;;;;;5052700;28;20237;-70
2023/01/19 08:08:47;;;;;;;78.57;16.98;;;;;;;;;;5051665;28;20213;-70
2023/01/19 08:11:15;;;;;;;86.82;19.52;;;;;;;;;;5052914;28;20202;-70
2023/01/19 08:13:42;;;;;;;82.38;19.13;;;;;;;;;;5052728;28;20295;-70
2023/01/19 08:16:09;;;;;;;79.22;19.30;;;;;;;;;;5052687;28;20208;-70
2023/01/19 08:18:36;;;;;;;80.45;18.67;;;;;;;;;;5051588;28;20670;-70
2023/01/19 08:21:03;;;;;;;80.00;18.60;;;;;;;;;;5052369;28;20228;-70
2023/01/19 08:23:32;;;;;;;79.85;18.58;;;;;;;;;;5052243;28;20225;-70
2023/01/19 08:25:59;;;;;;;77.28;17.77;;;;;;;;;;5052352;28;20210;-70
2023/01/19 08:28:26;;;;;;;81.80;18.50;;;;;;;;;;5052031;28;20206;-70
2023/01/19 08:30:54;;;;;;;80.28;18.60;;;;;;;;;;5051907;28;20208;-71
2023/01/19 08:33:21;;;;;;;79.30;17.45;;;;;;;;;;5052145;28;20291;-70
2023/01/19 08:35:49;;;;;;;79.75;17.27;;;;;;;;;;5051821;28;20209;-71
2023/01/19 08:38:17;;;;;;;84.10;16.13;;;;;;;;;;5051974;28;20583;-71
2023/01/19 08:40:45;;;;;;;82.10;20.02;;;;;;;;;;5051350;28;20234;-71
2023/01/19 08:43:13;;;;;;;77.50;18.15;;;;;;;;;;5052172;28;20244;-71
2023/01/19 08:45:47;;;;;;;76.60;17.52;;;;;;;;;;5052059;28;20210;-70
2023/01/19 08:48:14;;;;;;;79.68;16.15;;;;;;;;;;5052010;28;20682;-71
2023/01/19 08:50:41;;;;;;;77.18;14.15;;;;;;;;;;5051349;28;20206;-71
2023/01/19 08:53:09;;;;;;;70.78;12.70;;;;;;;;;;5052073;28;20741;-71
2023/01/19 08:55:37;;;;;;;70.53;12.82;;;;;;;;;;5052484;28;20212;-71
2023/01/19 08:58:07;;;;;;;72.30;14.07;;;;;;;;;;5051821;28;20214;-71
2023/01/19 09:00:36;;;;;;;98.10;14.13;;;;;;;;;;5051203;28;20229;-71
2023/01/19 09:03:04;;;;;;;75.50;13.90;;;;;;;;;;5051827;28;20741;-71
2023/01/19 09:05:34;;;;;;;74.50;12.88;;;;;;;;;;5052235;28;20201;-71
2023/01/19 09:08:01;;;;;;;71.15;12.98;;;;;;;;;;5052330;28;20210;-71
2023/01/19 09:10:30;;;;;;;68.88;12.02;;;;;;;;;;5051545;28;20288;-71
2023/01/19 09:12:57;;;;;;;68.43;11.23;;;;;;;;;;5052844;28;20229;-72
2023/01/19 09:15:26;;;;;;;67.55;11.20;;;;;;;;;;5052468;28;20217;-72
2023/01/19 09:17:53;;;;;;;74.38;14.27;;;;;;;;;;5051877;28;20213;-71
2023/01/19 09:20:20;;;;;;;66.72;9.98;;;;;;;;;;5051308;28;20622;-72
2023/01/19 09:22:47;;;;;;;68.32;10.35;;;;;;;;;;5051800;28;20241;-71
2023/01/19 09:25:14;;;;;;;68.20;9.88;;;;;;;;;;5051696;28;20648;-71
2023/01/19 09:27:41;;;;;;;71.45;8.38;;;;;;;;;;5051639;28;20230;-72
2023/01/19 09:30:10;;;;;;;68.68;9.50;;;;;;;;;;5051009;28;20212;-72
2023/01/19 09:32:38;;;;;;;66.60;8.88;;;;;;;;;;5051716;28;20221;-71
2023/01/19 09:35:06;;;;;;;66.43;9.82;;;;;;;;;;5051692;28;20578;-71
2023/01/19 09:37:33;;;;;;;66.10;8.85;;;;;;;;;;5051962;28;20208;-72
2023/01/19 09:40:00;;;;;;;64.50;8.32;;;;;;;;;;5051722;28;20231;-72
2023/01/19 09:42:29;;;;;;;74.18;10.32;;;;;;;;;;5052312;28;20230;-72
2023/01/19 09:44:57;;;;;;;71.22;12.23;;;;;;;;;;5052871;28;20671;-72
2023/01/19 09:47:27;;;;;;;65.22;10.07;;;;;;;;;;5052599;28;20211;-71
2023/01/19 09:49:58;;;;;;;69.00;9.20;;;;;;;;;;5055678;28;20217;-71
2023/01/19 09:52:25;;;;;;;66.88;8.32;;;;;;;;;;5056512;28;20227;-72
2023/01/19 09:54:54;;;;;;;65.22;8.73;;;;;;;;;;5056171;28;20563;-71
2023/01/19 09:57:21;;;;;;;67.07;11.02;;;;;;;;;;5055477;28;20264;-72
2023/01/19 09:59:50;;;;;;;71.20;10.32;;;;;;;;;;5054489;28;20208;-72
2023/01/19 10:02:25;;;;;;;66.30;10.07;;;;;;;;;;5055368;28;20293;-72
2023/01/19 10:04:58;;;;;;;66.35;9.50;;;;;;;;;;5055025;28;20651;-72
2023/01/19 10:07:33;;;;;;;67.53;9.27;;;;;;;;;;5055146;28;20312;-72
2023/01/19 10:10:07;;;;;;;67.40;8.70;;;;;;;;;;5054094;28;20214;-72
2023/01/19 10:12:39;;;;;;;65.70;9.15;;;;;;;;;;5054685;28;20224;-71
2023/01/19 10:15:12;;;;;;;67.38;10.05;;;;;;;;;;5054906;28;20227;-71
2023/01/19 10:17:43;;;;;;;66.75;10.05;;;;;;;;;;5054802;28;20576;-71
2023/01/19 10:20:15;;;;;;;72.40;11.77;;;;;;;;;;5053795;28;20215;-71
2023/01/19 10:22:43;;;;;;;68.55;11.98;;;;;;;;;;5054589;28;20235;-72
2023/01/19 10:25:14;;;;;;;73.20;12.93;;;;;;;;;;5054605;28;20308;-71
2023/01/19 10:27:41;;;;;;;75.00;14.57;;;;;;;;;;5054677;28;20217;-72
2023/01/19 10:30:10;;;;;;;67.00;8.77;;;;;;;;;;5053769;28;20215;-71
2023/01/19 10:32:37;;;;;;;71.43;10.27;;;;;;;;;;5054255;28;20262;-71
2023/01/19 10:35:13;;;;;;;103.25;24.63;;;;;;;;;;5054506;28;20219;-72
2023/01/19 10:37:43;;;;;;;109.85;31.38;;;;;;;;;;5054543;28;20236;-72
2023/01/19 10:40:18;;;;;;;88.82;18.30;;;;;;;;;;5053617;28;20251;-71
2023/01/19 10:42:46;;;;;;;69.75;10.95;;;;;;;;;;5054324;28;20288;-71
2023/01/19 10:45:16;;;;;;;91.63;24.73;;;;;;;;;;5054258;28;20211;-72
2023/01/19 10:47:43;;;;;;;68.32;11.57;;;;;;;;;;5054329;28;20322;-72
2023/01/19 10:50:22;;;;;;;80.90;17.88;;;;;;;;;;5053476;28;20206;-71
2023/01/19 10:52:52;;;;;;;69.47;11.30;;;;;;;;;;5053904;28;20286;-71
2023/01/19 10:55:27;;;;;;;64.25;8.75;;;;;;;;;;5053992;28;20213;-71
2023/01/19 10:57:54;;;;;;;64.40;7.82;;;;;;;;;;5054151;28;20223;-72
2023/01/19 11:00:32;;;;;;;63.63;8.30;;;;;;;;;;5053001;28;20220;-72
2023/01/19 11:02:59;;;;;;;62.80;7.43;;;;;;;;;;5053646;28;20312;-72
2023/01/19 11:05:27;;;;;;;63.70;7.57;;;;;;;;;;5053895;28;20206;-71
2023/01/19 11:07:56;;;;;;;68.10;7.88;;;;;;;;;;5053737;28;20563;-72
2023/01/19 11:10:24;;;;;;;63.63;8.00;;;;;;;;;;5053077;28;20221;-71
2023/01/19 11:13:00;;;;;;;68.88;8.43;;;;;;;;;;5053797;28;20225;-72
2023/01/19 11:15:30;;;;;;;64.13;8.55;;;;;;;;;;5053759;28;20211;-71
2023/01/19 11:17:57;;;;;;;63.45;7.35;;;;;;;;;;5053439;28;20702;-72
2023/01/19 11:20:26;;;;;;;62.10;7.50;;;;;;;;;;5052858;28;20708;-72
2023/01/19 11:23:06;;;;;;;62.22;7.32;;;;;;;;;;5053232;28;20636;-71
2023/01/19 11:25:34;;;;;;;64.88;8.95;;;;;;;;;;5053369;28;20220;-71
2023/01/19 11:28:01;;;;;;;63.30;7.43;;;;;;;;;;5053462;28;20786;-72
2023/01/19 11:30:28;;;;;;;62.92;7.63;;;;;;;;;;5052645;28;20204;-71
2023/01/19 11:32:56;;;;;;;64.85;7.60;;;;;;;;;;5053143;28;20251;-72
2023/01/19 11:35:34;;;;;;;65.07;8.40;;;;;;;;;;5053395;28;20205;-71
2023/01/19 11:38:14;;;;;;;64.70;7.72;;;;;;;;;;5053075;28;20695;-71
2023/01/19 11:40:42;;;;;;;63.58;7.82;;;;;;;;;;5052707;28;20215;-72
2023/01/19 11:43:11;;;;;;;62.72;7.75;;;;;;;;;;5052950;28;20237;-72
2023/01/19 11:45:40;;;;;;;64.45;6.85;;;;;;;;;;5052876;28;20693;-71
2023/01/19 11:48:08;;;;;;;62.58;7.72;;;;;;;;;;5052971;28;20206;-72
2023/01/19 11:50:36;;;;;;;65.68;7.57;;;;;;;;;;5052440;28;20209;-72
2023/01/19 11:53:06;;;;;;;63.85;7.25;;;;;;;;;;5052773;28;20252;-71
2023/01/19 11:55:38;;;;;;;66.45;7.82;;;;;;;;;;5052834;28;20694;-71
2023/01/19 11:58:05;;;;;;;65.25;8.70;;;;;;;;;;5052681;28;20212;-71
2023/01/19 12:00:35;;;;;;;67.82;7.55;;;;;;;;;;5052237;28;20204;-71
2023/01/19 12:03:07;;;;;;;60.80;6.38;;;;;;;;;;5052627;28;20236;-72
2023/01/19 12:05:39;;;;;;;63.55;7.45;;;;;;;;;;5052628;28;20229;-71
2023/01/19 12:08:07;;;;;;;65.03;7.65;;;;;;;;;;5052549;28;20219;-71
2023/01/19 12:10:36;;;;;;;61.92;7.00;;;;;;;;;;5051166;28;20669;-71
2023/01/19 12:13:03;;;;;;;64.13;7.10;;;;;;;;;;5052368;28;20228;-71
2023/01/19 12:15:33;;;;;;;61.55;6.72;;;;;;;;;;5052487;28;20688;-71
2023/01/19 12:18:01;;;;;;;64.68;6.75;;;;;;;;;;5052520;28;20230;-71
2023/01/19 12:20:31;;;;;;;63.05;7.72;;;;;;;;;;5051946;28;20204;-72
2023/01/19 12:23:03;;;;;;;67.53;7.70;;;;;;;;;;5052110;28;20238;-71
2023/01/19 12:25:34;;;;;;;64.30;7.65;;;;;;;;;;5052089;28;20216;-71
2023/01/19 12:28:02;;;;;;;62.67;7.00;;;;;;;;;;5052250;28;20212;-71
2023/01/19 12:30:30;;;;;;;64.43;8.27;;;;;;;;;;5051516;28;20211;-71
2023/01/19 12:33:12;;;;;;;64.20;8.13;;;;;;;;;;5052025;28;20229;-71
2023/01/19 12:35:56;;;;;;;66.35;8.57;;;;;;;;;;5051680;28;20213;-71
2023/01/19 12:38:24;;;;;;;62.30;7.88;;;;;;;;;;5052071;28;20219;-71
2023/01/19 12:41:06;;;;;;;65.18;7.68;;;;;;;;;;5051313;28;20213;-71
2023/01/19 12:43:34;;;;;;;63.78;8.15;;;;;;;;;;5051597;28;20242;-71
2023/01/19 12:46:02;;;;;;;68.63;8.02;;;;;;;;;;5051733;28;20205;-71
2023/01/19 12:48:32;;;;;;;64.38;8.82;;;;;;;;;;5051842;28;20695;-71
2023/01/19 12:50:59;;;;;;;64.78;7.25;;;;;;;;;;5052292;28;20681;-71
2023/01/19 12:53:27;;;;;;;64.50;7.88;;;;;;;;;;5051925;28;20229;-70
2023/01/19 12:56:01;;;;;;;63.53;7.32;;;;;;;;;;5051889;28;20209;-71
2023/01/19 12:58:29;;;;;;;63.50;8.52;;;;;;;;;;5051461;28;20209;-70
2023/01/19 13:01:11;;;;;;;67.30;8.75;;;;;;;;;;5051610;28;20259;-70
2023/01/19 13:03:58;;;;;;;64.70;8.30;;;;;;;;;;5051544;28;20242;-70
2023/01/19 13:06:40;;;;;;;68.30;8.15;;;;;;;;;;5051750;28;20215;-71
2023/01/19 13:09:28;;;;;;;65.72;7.97;;;;;;;;;;5050799;28;20216;-70
2023/01/19 13:12:13;;;;;;;68.78;8.38;;;;;;;;;;5051839;28;20212;-70
2023/01/19 13:14:41;;;;;;;68.22;9.18;;;;;;;;;;5051554;28;20216;-71
2023/01/19 13:17:27;;;;;;;64.32;8.77;;;;;;;;;;5051572;28;20204;-71
2023/01/19 13:20:01;;;;;;;62.72;8.45;;;;;;;;;;5050881;28;20694;-71
2023/01/19 13:22:48;;;;;;;63.88;7.80;;;;;;;;;;5051775;28;20235;-71
2023/01/19 13:25:21;;;;;;;65.47;8.85;;;;;;;;;;5055530;28;20212;-71
2023/01/19 13:27:48;;;;;;;64.57;8.93;;;;;;;;;;5055545;28;20219;-71
2023/01/19 13:30:18;;;;;;;63.50;9.30;;;;;;;;;;5054966;28;20209;-71
2023/01/19 13:32:45;;;;;;;65.45;8.35;;;;;;;;;;5055549;28;20577;-71
2023/01/19 13:35:17;;;;;;;66.97;8.52;;;;;;;;;;5055600;28;20205;-71
2023/01/19 13:37:44;;;;;;;65.57;9.40;;;;;;;;;;5055669;28;20211;-72
2023/01/19 13:40:16;;;;;;;65.78;9.25;;;;;;;;;;5055033;28;20211;-72
2023/01/19 13:42:44;;;;;;;63.50;8.65;;;;;;;;;;5055240;28;20244;-71
2023/01/19 13:45:17;;;;;;;69.13;9.90;;;;;;;;;;5055514;28;20208;-71
2023/01/19 13:47:47;;;;;;;64.95;9.60;;;;;;;;;;5055497;28;20210;-71
2023/01/19 13:50:21;;;;;;;68.45;10.00;;;;;;;;;;5054521;28;20208;-71
2023/01/19 13:52:50;;;;;;;65.00;9.35;;;;;;;;;;5055021;28;20724;-71
2023/01/19 13:55:19;;;;;;;64.13;9.18;;;;;;;;;;5055355;28;20209;-71
2023/01/19 13:57:47;;;;;;;69.00;9.13;;;;;;;;;;5055294;28;20240;-71
2023/01/19 14:00:18;;;;;;;63.97;9.32;;;;;;;;;;5054550;28;20675;-72
2023/01/19 14:02:57;;;;;;;64.25;9.20;;;;;;;;;;5054776;28;20233;-71
2023/01/19 14:05:27;;;;;;;63.75;8.35;;;;;;;;;;5054875;28;20209;-70
2023/01/19 14:08:01;;;;;;;64.78;8.90;;;;;;;;;;5055078;28;20210;-72
2023/01/19 14:10:30;;;;;;;64.65;8.95;;;;;;;;;;5054312;28;20207;-72
2023/01/19 14:13:00;;;;;;;64.72;8.90;;;;;;;;;;5054632;28;20318;-71
2023/01/19 14:15:27;;;;;;;64.55;10.15;;;;;;;;;;5054728;28;20578;-72
2023/01/19 14:18:11;;;;;;;67.70;9.85;;;;;;;;;;5055010;28;20202;-71
2023/01/19 14:20:40;;;;;;;67.65;10.18;;;;;;;;;;5054013;28;20204;-72
2023/01/19 14:23:07;;;;;;;66.22;10.02;;;;;;;;;;5054483;28;20232;-71
2023/01/19 14:25:35;;;;;;;65.75;10.02;;;;;;;;;;5054484;28;20222;-72
2023/01/19 14:28:20;;;;;;;66.30;9.90;;;;;;;;;;5054877;28;20216;-72
2023/01/19 14:30:54;;;;;;;65.05;10.23;;;;;;;;;;5053902;28;20263;-71
2023/01/19 14:33:33;;;;;;;65.68;9.45;;;;;;;;;;5054013;28;20763;-72
2023/01/19 14:36:10;;;;;;;67.43;10.57;;;;;;;;;;5054430;28;20587;-72
2023/01/19 14:38:38;;;;;;;68.70;12.20;;;;;;;;;;5053527;28;20211;-71
2023/01/19 14:41:05;;;;;;;71.97;11.38;;;;;;;;;;5054531;28;20209;-72
2023/01/19 14:43:32;;;;;;;70.43;13.38;;;;;;;;;;5054013;28;20231;-72